sensor_id;sensor_type;location;lat;lon;timestamp;pressure;altitude;pressure_sealevel;temperature;humidity
2711;BME280;20721;47.402;8.550;2023-04-05T00:00:17;96429;;;4.46;41.22
2711;BME280;20721;47.402;8.550;2023-04-05T00:02:18;96431;;;4.34;41.12
2711;BME280;20721;47.402;8.550;2023-04-05T00:03:17;96431;;;4.27;41.23
2711;BME280;20721;47.402;8.550;2023-04-05T00:04:20;96431;;;4.24;41.42
2711;BME280;20721;47.402;8.550;2023-04-05T00:05:20;96433;;;4.25;41.59
2711;BME280;20721;47.402;8.550;2023-04-05T00:06:17;96435;;;4.28;41.41
2711;BME280;20721;47.402;8.550;2023-04-05T00:07:17;96432;;;4.32;41.41
2711;BME280;20721;47.402;8.550;2023-04-05T00:08:22;96430;;;4.36;41.28
2711;BME280;20721;47.402;8.550;2023-04-05T00:09:18;96430;;;4.39;41.25
2711;BME280;20721;47.402;8.550;2023-04-05T00:12:17;96430;;;4.40;41.29
2711;BME280;20721;47.402;8.550;2023-04-05T00:13:17;96430;;;4.36;41.36
2711;BME280;20721;47.402;8.550;2023-04-05T00:14:17;96432;;;4.29;41.40
2711;BME280;20721;47.402;8.550;2023-04-05T00:15:17;96432;;;4.26;41.53
2711;BME280;20721;47.402;8.550;2023-04-05T00:16:17;96431;;;4.25;41.61
2711;BME280;20721;47.402;8.550;2023-04-05T00:17:17;96430;;;4.27;41.55
2711;BME280;20721;47.402;8.550;2023-04-05T00:18:24;96433;;;4.26;41.50
2711;BME280;20721;47.402;8.550;2023-04-05T00:19:17;96431;;;4.20;41.49
2711;BME280;20721;47.402;8.550;2023-04-05T00:20:17;96433;;;4.16;41.57
2711;BME280;20721;47.402;8.550;2023-04-05T00:21:17;96431;;;4.18;41.65
2711;BME280;20721;47.402;8.550;2023-04-05T00:22:19;96431;;;4.21;41.71
2711;BME280;20721;47.402;8.550;2023-04-05T00:23:17;96428;;;4.26;41.65
2711;BME280;20721;47.402;8.550;2023-04-05T00:24:17;96431;;;4.27;41.57
2711;BME280;20721;47.402;8.550;2023-04-05T00:25:17;96424;;;4.29;41.60
2711;BME280;20721;47.402;8.550;2023-04-05T00:26:17;96426;;;4.34;41.47
2711;BME280;20721;47.402;8.550;2023-04-05T00:27:17;96423;;;4.36;41.54
2711;BME280;20721;47.402;8.550;2023-04-05T00:28:17;96420;;;4.38;41.52
2711;BME280;20721;47.402;8.550;2023-04-05T00:29:17;96423;;;4.40;41.51
2711;BME280;20721;47.402;8.550;2023-04-05T00:30:19;96420;;;4.41;41.38
2711;BME280;20721;47.402;8.550;2023-04-05T00:31:17;96417;;;4.38;41.29
2711;BME280;20721;47.402;8.550;2023-04-05T00:32:17;96413;;;4.36;41.36
2711;BME280;20721;47.402;8.550;2023-04-05T00:35:17;96415;;;4.35;41.38
2711;BME280;20721;47.402;8.550;2023-04-05T00:36:18;96415;;;4.36;41.55
2711;BME280;20721;47.402;8.550;2023-04-05T00:38:17;96409;;;4.37;41.56
2711;BME280;20721;47.402;8.550;2023-04-05T00:39:17;96414;;;4.33;41.50
2711;BME280;20721;47.402;8.550;2023-04-05T00:40:17;96413;;;4.34;41.55
2711;BME280;20721;47.402;8.550;2023-04-05T00:41:17;96410;;;4.36;41.58
2711;BME280;20721;47.402;8.550;2023-04-05T00:42:17;96411;;;4.37;41.66
2711;BME280;20721;47.402;8.550;2023-04-05T00:44:17;96410;;;4.40;41.89
2711;BME280;20721;47.402;8.550;2023-04-05T00:45:17;96407;;;4.36;41.87
2711;BME280;20721;47.402;8.550;2023-04-05T00:46:17;96405;;;4.29;42.00
2711;BME280;20721;47.402;8.550;2023-04-05T00:47:17;96407;;;4.27;42.14
2711;BME280;20721;47.402;8.550;2023-04-05T00:48:17;96402;;;4.26;42.11
2711;BME280;20721;47.402;8.550;2023-04-05T00:49:17;96404;;;4.23;42.31
2711;BME280;20721;47.402;8.550;2023-04-05T00:53:17;96403;;;4.25;42.42
2711;BME280;20721;47.402;8.550;2023-04-05T00:54:17;96405;;;4.27;42.37
2711;BME280;20721;47.402;8.550;2023-04-05T00:56:17;96402;;;4.28;42.46
2711;BME280;20721;47.402;8.550;2023-04-05T00:57:17;96403;;;4.27;42.31
2711;BME280;20721;47.402;8.550;2023-04-05T00:58:18;96402;;;4.25;42.44
2711;BME280;20721;47.402;8.550;2023-04-05T00:59:17;96397;;;4.21;42.44
2711;BME280;20721;47.402;8.550;2023-04-05T01:01:17;96393;;;4.18;42.40
2711;BME280;20721;47.402;8.550;2023-04-05T01:02:18;96393;;;4.15;42.48
2711;BME280;20721;47.402;8.550;2023-04-05T01:03:19;96396;;;4.09;42.55
2711;BME280;20721;47.402;8.550;2023-04-05T01:04:23;96396;;;4.07;42.78
2711;BME280;20721;47.402;8.550;2023-04-05T01:06:23;96394;;;4.01;42.70
2711;BME280;20721;47.402;8.550;2023-04-05T01:08:18;96397;;;3.99;42.91
2711;BME280;20721;47.402;8.550;2023-04-05T01:09:23;96391;;;4.02;42.84
2711;BME280;20721;47.402;8.550;2023-04-05T01:10:17;96393;;;4.05;42.85
2711;BME280;20721;47.402;8.550;2023-04-05T01:11:17;96393;;;4.03;42.91
2711;BME280;20721;47.402;8.550;2023-04-05T01:12:17;96391;;;3.88;43.07
2711;BME280;20721;47.402;8.550;2023-04-05T01:13:17;96391;;;3.79;43.26
2711;BME280;20721;47.402;8.550;2023-04-05T01:14:17;96385;;;3.75;43.56
2711;BME280;20721;47.402;8.550;2023-04-05T01:15:17;96389;;;3.81;43.64
2711;BME280;20721;47.402;8.550;2023-04-05T01:16:17;96387;;;3.88;43.56
2711;BME280;20721;47.402;8.550;2023-04-05T01:17:22;96387;;;3.94;43.28
2711;BME280;20721;47.402;8.550;2023-04-05T01:18:17;96385;;;4.00;43.26
2711;BME280;20721;47.402;8.550;2023-04-05T01:19:17;96385;;;4.07;43.21
2711;BME280;20721;47.402;8.550;2023-04-05T01:20:17;96386;;;4.11;43.21
2711;BME280;20721;47.402;8.550;2023-04-05T01:22:24;96386;;;4.16;43.15
2711;BME280;20721;47.402;8.550;2023-04-05T01:23:25;96386;;;4.18;43.07
2711;BME280;20721;47.402;8.550;2023-04-05T01:25:21;96381;;;4.24;42.89
2711;BME280;20721;47.402;8.550;2023-04-05T01:27:19;96381;;;4.24;42.81
2711;BME280;20721;47.402;8.550;2023-04-05T01:31:36;96374;;;4.27;42.71
2711;BME280;20721;47.402;8.550;2023-04-05T01:32:20;96373;;;4.30;42.74
2711;BME280;20721;47.402;8.550;2023-04-05T01:35:21;96368;;;4.33;42.78
2711;BME280;20721;47.402;8.550;2023-04-05T01:37:17;96370;;;4.35;42.70
2711;BME280;20721;47.402;8.550;2023-04-05T01:38:17;96369;;;4.32;42.52
2711;BME280;20721;47.402;8.550;2023-04-05T01:39:17;96370;;;4.29;42.52
2711;BME280;20721;47.402;8.550;2023-04-05T01:40:17;96371;;;4.27;42.62
2711;BME280;20721;47.402;8.550;2023-04-05T01:42:21;96368;;;4.25;42.52
2711;BME280;20721;47.402;8.550;2023-04-05T01:43:17;96368;;;4.23;42.56
2711;BME280;20721;47.402;8.550;2023-04-05T01:44:17;96366;;;4.22;42.63
2711;BME280;20721;47.402;8.550;2023-04-05T01:45:17;96366;;;4.21;42.71
2711;BME280;20721;47.402;8.550;2023-04-05T01:46:17;96365;;;4.22;42.72
2711;BME280;20721;47.402;8.550;2023-04-05T01:47:17;96365;;;4.24;42.77
2711;BME280;20721;47.402;8.550;2023-04-05T01:48:17;96365;;;4.27;42.80
2711;BME280;20721;47.402;8.550;2023-04-05T01:50:17;96366;;;4.29;42.79
2711;BME280;20721;47.402;8.550;2023-04-05T01:52:17;96363;;;4.26;42.88
2711;BME280;20721;47.402;8.550;2023-04-05T01:54:17;96364;;;4.27;42.97
2711;BME280;20721;47.402;8.550;2023-04-05T01:56:17;96366;;;4.28;43.04
2711;BME280;20721;47.402;8.550;2023-04-05T01:57:17;96364;;;4.27;42.97
2711;BME280;20721;47.402;8.550;2023-04-05T01:58:17;96366;;;4.28;42.99
2711;BME280;20721;47.402;8.550;2023-04-05T02:01:17;96363;;;4.27;43.14
2711;BME280;20721;47.402;8.550;2023-04-05T02:02:17;96362;;;4.28;43.11
2711;BME280;20721;47.402;8.550;2023-04-05T02:03:17;96359;;;4.27;43.04
2711;BME280;20721;47.402;8.550;2023-04-05T02:04:17;96360;;;4.29;42.95
2711;BME280;20721;47.402;8.550;2023-04-05T02:05:17;96362;;;4.27;43.08
2711;BME280;20721;47.402;8.550;2023-04-05T02:06:17;96357;;;4.29;43.22
2711;BME280;20721;47.402;8.550;2023-04-05T02:07:17;96359;;;4.31;43.10
2711;BME280;20721;47.402;8.550;2023-04-05T02:09:17;96355;;;4.33;43.02
2711;BME280;20721;47.402;8.550;2023-04-05T02:11:17;96355;;;4.34;43.10
2711;BME280;20721;47.402;8.550;2023-04-05T02:12:17;96353;;;4.33;42.97
2711;BME280;20721;47.402;8.550;2023-04-05T02:13:17;96351;;;4.35;42.87
2711;BME280;20721;47.402;8.550;2023-04-05T02:14:17;96349;;;4.37;42.90
2711;BME280;20721;47.402;8.550;2023-04-05T02:15:17;96351;;;4.38;42.85
2711;BME280;20721;47.402;8.550;2023-04-05T02:16:17;96352;;;4.36;42.87
2711;BME280;20721;47.402;8.550;2023-04-05T02:17:17;96348;;;4.34;42.99
2711;BME280;20721;47.402;8.550;2023-04-05T02:20:17;96345;;;4.32;43.19
2711;BME280;20721;47.402;8.550;2023-04-05T02:21:17;96347;;;4.29;43.13
2711;BME280;20721;47.402;8.550;2023-04-05T02:22:17;96342;;;4.28;43.04
2711;BME280;20721;47.402;8.550;2023-04-05T02:23:17;96343;;;4.30;43.03
2711;BME280;20721;47.402;8.550;2023-04-05T02:25:17;96342;;;4.29;43.08
2711;BME280;20721;47.402;8.550;2023-04-05T02:27:17;96341;;;4.27;43.25
2711;BME280;20721;47.402;8.550;2023-04-05T02:28:17;96340;;;4.25;43.27
2711;BME280;20721;47.402;8.550;2023-04-05T02:29:17;96338;;;4.23;43.25
2711;BME280;20721;47.402;8.550;2023-04-05T02:30:17;96339;;;4.21;43.40
2711;BME280;20721;47.402;8.550;2023-04-05T02:32:17;96335;;;4.22;43.41
2711;BME280;20721;47.402;8.550;2023-04-05T02:33:17;96335;;;4.21;43.49
2711;BME280;20721;47.402;8.550;2023-04-05T02:36:17;96335;;;4.22;43.51
2711;BME280;20721;47.402;8.550;2023-04-05T02:37:18;96331;;;4.23;43.55
2711;BME280;20721;47.402;8.550;2023-04-05T02:38:17;96329;;;4.21;43.84
2711;BME280;20721;47.402;8.550;2023-04-05T02:39:17;96332;;;4.24;43.61
2711;BME280;20721;47.402;8.550;2023-04-05T02:40:17;96330;;;4.22;43.52
2711;BME280;20721;47.402;8.550;2023-04-05T02:42:17;96332;;;4.20;43.47
2711;BME280;20721;47.402;8.550;2023-04-05T02:43:17;96327;;;4.18;43.49
2711;BME280;20721;47.402;8.550;2023-04-05T02:44:17;96330;;;4.19;43.46
2711;BME280;20721;47.402;8.550;2023-04-05T02:45:17;96330;;;4.20;43.51
2711;BME280;20721;47.402;8.550;2023-04-05T02:46:17;96331;;;4.17;43.46
2711;BME280;20721;47.402;8.550;2023-04-05T02:47:20;96329;;;4.15;43.49
2711;BME280;20721;47.402;8.550;2023-04-05T02:48:17;96327;;;4.11;43.55
2711;BME280;20721;47.402;8.550;2023-04-05T02:49:17;96328;;;4.10;43.55
2711;BME280;20721;47.402;8.550;2023-04-05T02:50:19;96324;;;4.11;43.74
2711;BME280;20721;47.402;8.550;2023-04-05T02:51:17;96324;;;4.12;43.66
2711;BME280;20721;47.402;8.550;2023-04-05T02:52:17;96323;;;4.10;43.68
2711;BME280;20721;47.402;8.550;2023-04-05T02:53:17;96323;;;4.09;43.74
2711;BME280;20721;47.402;8.550;2023-04-05T02:55:17;96323;;;4.10;43.65
2711;BME280;20721;47.402;8.550;2023-04-05T02:58:18;96318;;;4.08;43.75
2711;BME280;20721;47.402;8.550;2023-04-05T03:00:17;96312;;;4.06;43.78
2711;BME280;20721;47.402;8.550;2023-04-05T03:01:17;96311;;;4.05;43.70
2711;BME280;20721;47.402;8.550;2023-04-05T03:03:17;96309;;;4.03;43.77
2711;BME280;20721;47.402;8.550;2023-04-05T03:04:17;96310;;;4.04;43.89
2711;BME280;20721;47.402;8.550;2023-04-05T03:05:17;96311;;;4.05;43.91
2711;BME280;20721;47.402;8.550;2023-04-05T03:07:17;96305;;;4.03;43.96
2711;BME280;20721;47.402;8.550;2023-04-05T03:08:18;96304;;;3.98;44.11
2711;BME280;20721;47.402;8.550;2023-04-05T03:09:17;96306;;;3.97;44.12
2711;BME280;20721;47.402;8.550;2023-04-05T03:10:18;96306;;;3.99;43.87
2711;BME280;20721;47.402;8.550;2023-04-05T03:11:17;96302;;;4.01;43.97
2711;BME280;20721;47.402;8.550;2023-04-05T03:12:17;96306;;;4.00;43.97
2711;BME280;20721;47.402;8.550;2023-04-05T03:14:17;96307;;;3.99;43.87
2711;BME280;20721;47.402;8.550;2023-04-05T03:15:17;96307;;;3.97;43.93
2711;BME280;20721;47.402;8.550;2023-04-05T03:16:19;96305;;;3.96;43.93
2711;BME280;20721;47.402;8.550;2023-04-05T03:18:17;96302;;;3.97;43.99
2711;BME280;20721;47.402;8.550;2023-04-05T03:19:21;96308;;;3.99;44.07
2711;BME280;20721;47.402;8.550;2023-04-05T03:21:18;96304;;;3.97;43.94
2711;BME280;20721;47.402;8.550;2023-04-05T03:22:17;96304;;;3.98;44.01
2711;BME280;20721;47.402;8.550;2023-04-05T03:23:17;96308;;;3.95;44.06
2711;BME280;20721;47.402;8.550;2023-04-05T03:25:17;96305;;;3.94;44.12
2711;BME280;20721;47.402;8.550;2023-04-05T03:26:17;96303;;;3.96;44.28
2711;BME280;20721;47.402;8.550;2023-04-05T03:27:17;96301;;;3.97;44.19
2711;BME280;20721;47.402;8.550;2023-04-05T03:28:17;96303;;;3.99;44.28
2711;BME280;20721;47.402;8.550;2023-04-05T03:31:20;96300;;;4.00;44.17
2711;BME280;20721;47.402;8.550;2023-04-05T03:32:17;96298;;;4.01;44.11
2711;BME280;20721;47.402;8.550;2023-04-05T03:33:17;96301;;;4.02;44.12
2711;BME280;20721;47.402;8.550;2023-04-05T03:34:17;96304;;;4.03;44.19
2711;BME280;20721;47.402;8.550;2023-04-05T03:37:17;96306;;;4.02;44.27
2711;BME280;20721;47.402;8.550;2023-04-05T03:38:17;96303;;;3.99;44.16
2711;BME280;20721;47.402;8.550;2023-04-05T03:39:17;96303;;;4.00;44.21
2711;BME280;20721;47.402;8.550;2023-04-05T03:42:17;96301;;;3.99;44.01
2711;BME280;20721;47.402;8.550;2023-04-05T03:43:17;96299;;;3.97;43.98
2711;BME280;20721;47.402;8.550;2023-04-05T03:44:17;96298;;;3.96;43.99
2711;BME280;20721;47.402;8.550;2023-04-05T03:45:24;96302;;;3.95;43.98
2711;BME280;20721;47.402;8.550;2023-04-05T03:46:17;96300;;;3.94;43.97
2711;BME280;20721;47.402;8.550;2023-04-05T03:47:17;96300;;;3.95;44.00
2711;BME280;20721;47.402;8.550;2023-04-05T03:48:19;96299;;;3.93;44.06
2711;BME280;20721;47.402;8.550;2023-04-05T03:49:18;96297;;;3.94;44.08
2711;BME280;20721;47.402;8.550;2023-04-05T03:50:17;96298;;;3.93;44.05
2711;BME280;20721;47.402;8.550;2023-04-05T03:52:17;96294;;;3.94;43.95
2711;BME280;20721;47.402;8.550;2023-04-05T03:53:17;96294;;;3.93;43.96
2711;BME280;20721;47.402;8.550;2023-04-05T03:54:17;96298;;;3.91;43.96
2711;BME280;20721;47.402;8.550;2023-04-05T03:55:17;96294;;;3.89;43.99
2711;BME280;20721;47.402;8.550;2023-04-05T03:56:17;96293;;;3.88;43.96
2711;BME280;20721;47.402;8.550;2023-04-05T03:58:17;96289;;;3.86;44.04
2711;BME280;20721;47.402;8.550;2023-04-05T03:59:17;96289;;;3.83;43.89
2711;BME280;20721;47.402;8.550;2023-04-05T04:01:17;96287;;;3.81;44.03
2711;BME280;20721;47.402;8.550;2023-04-05T04:02:17;96288;;;3.82;44.05
2711;BME280;20721;47.402;8.550;2023-04-05T04:03:17;96285;;;3.80;44.08
2711;BME280;20721;47.402;8.550;2023-04-05T04:05:17;96288;;;3.81;44.20
2711;BME280;20721;47.402;8.550;2023-04-05T04:06:19;96284;;;3.79;44.25
2711;BME280;20721;47.402;8.550;2023-04-05T04:07:17;96288;;;3.82;44.13
2711;BME280;20721;47.402;8.550;2023-04-05T04:08:17;96290;;;3.83;44.21
2711;BME280;20721;47.402;8.550;2023-04-05T04:09:17;96289;;;3.82;44.29
2711;BME280;20721;47.402;8.550;2023-04-05T04:10:17;96295;;;3.79;44.42
2711;BME280;20721;47.402;8.550;2023-04-05T04:12:17;96291;;;3.78;44.45
2711;BME280;20721;47.402;8.550;2023-04-05T04:13:18;96293;;;3.76;44.52
2711;BME280;20721;47.402;8.550;2023-04-05T04:14:17;96292;;;3.77;44.39
2711;BME280;20721;47.402;8.550;2023-04-05T04:15:17;96292;;;3.74;44.37
2711;BME280;20721;47.402;8.550;2023-04-05T04:16:17;96294;;;3.73;44.35
2711;BME280;20721;47.402;8.550;2023-04-05T04:17:25;96292;;;3.70;44.28
2711;BME280;20721;47.402;8.550;2023-04-05T04:18:17;96292;;;3.69;44.34
2711;BME280;20721;47.402;8.550;2023-04-05T04:19:17;96289;;;3.68;44.32
2711;BME280;20721;47.402;8.550;2023-04-05T04:20:17;96290;;;3.70;44.26
2711;BME280;20721;47.402;8.550;2023-04-05T04:21:18;96291;;;3.68;44.20
2711;BME280;20721;47.402;8.550;2023-04-05T04:22:19;96289;;;3.66;44.30
2711;BME280;20721;47.402;8.550;2023-04-05T04:23:17;96289;;;3.60;44.46
2711;BME280;20721;47.402;8.550;2023-04-05T04:24:18;96287;;;3.55;44.62
2711;BME280;20721;47.402;8.550;2023-04-05T04:25:19;96290;;;3.53;44.70
2711;BME280;20721;47.402;8.550;2023-04-05T04:26:25;96294;;;3.52;44.66
2711;BME280;20721;47.402;8.550;2023-04-05T04:27:18;96290;;;3.51;44.81
2711;BME280;20721;47.402;8.550;2023-04-05T04:28:18;96292;;;3.48;44.84
2711;BME280;20721;47.402;8.550;2023-04-05T04:29:17;96294;;;3.46;44.68
2711;BME280;20721;47.402;8.550;2023-04-05T04:30:21;96291;;;3.44;44.79
2711;BME280;20721;47.402;8.550;2023-04-05T04:31:17;96292;;;3.42;44.85
2711;BME280;20721;47.402;8.550;2023-04-05T04:32:25;96288;;;3.39;45.21
2711;BME280;20721;47.402;8.550;2023-04-05T04:33:18;96285;;;3.38;45.07
2711;BME280;20721;47.402;8.550;2023-04-05T04:35:20;96280;;;3.34;45.08
2711;BME280;20721;47.402;8.550;2023-04-05T04:36:25;96284;;;3.35;45.18
2711;BME280;20721;47.402;8.550;2023-04-05T04:38:19;96278;;;3.33;45.25
2711;BME280;20721;47.402;8.550;2023-04-05T04:40:17;96280;;;3.34;45.18
2711;BME280;20721;47.402;8.550;2023-04-05T04:41:19;96276;;;3.36;45.08
2711;BME280;20721;47.402;8.550;2023-04-05T04:43:18;96271;;;3.34;44.91
2711;BME280;20721;47.402;8.550;2023-04-05T04:44:17;96274;;;3.33;44.98
2711;BME280;20721;47.402;8.550;2023-04-05T04:45:18;96274;;;3.30;45.21
2711;BME280;20721;47.402;8.550;2023-04-05T04:46:17;96271;;;3.28;45.27
2711;BME280;20721;47.402;8.550;2023-04-05T04:47:20;96271;;;3.26;45.43
2711;BME280;20721;47.402;8.550;2023-04-05T04:48:17;96274;;;3.24;45.44
2711;BME280;20721;47.402;8.550;2023-04-05T04:49:20;96277;;;3.20;45.67
2711;BME280;20721;47.402;8.550;2023-04-05T04:50:19;96278;;;3.17;45.75
2711;BME280;20721;47.402;8.550;2023-04-05T04:51:17;96279;;;3.16;45.88
2711;BME280;20721;47.402;8.550;2023-04-05T04:52:17;96279;;;3.15;45.89
2711;BME280;20721;47.402;8.550;2023-04-05T04:54:19;96277;;;3.14;45.89
2711;BME280;20721;47.402;8.550;2023-04-05T04:55:18;96278;;;3.15;45.98
2711;BME280;20721;47.402;8.550;2023-04-05T04:58:17;96277;;;3.16;46.05
2711;BME280;20721;47.402;8.550;2023-04-05T04:59:17;96276;;;3.17;46.12
2711;BME280;20721;47.402;8.550;2023-04-05T05:00:17;96272;;;3.19;46.14
2711;BME280;20721;47.402;8.550;2023-04-05T05:01:17;96275;;;3.20;46.21
2711;BME280;20721;47.402;8.550;2023-04-05T05:02:17;96275;;;3.23;46.10
2711;BME280;20721;47.402;8.550;2023-04-05T05:04:17;96275;;;3.24;46.22
2711;BME280;20721;47.402;8.550;2023-04-05T05:05:21;96277;;;3.25;46.19
2711;BME280;20721;47.402;8.550;2023-04-05T05:06:20;96278;;;3.24;46.30
2711;BME280;20721;47.402;8.550;2023-04-05T05:07:18;96283;;;3.26;46.35
2711;BME280;20721;47.402;8.550;2023-04-05T05:08:21;96284;;;3.27;46.26
2711;BME280;20721;47.402;8.550;2023-04-05T05:09:17;96288;;;3.25;46.31
2711;BME280;20721;47.402;8.550;2023-04-05T05:12:17;96287;;;3.26;46.10
2711;BME280;20721;47.402;8.550;2023-04-05T05:14:17;96294;;;3.27;46.14
2711;BME280;20721;47.402;8.550;2023-04-05T05:15:17;96297;;;3.26;46.10
2711;BME280;20721;47.402;8.550;2023-04-05T05:16:21;96301;;;3.25;46.07
2711;BME280;20721;47.402;8.550;2023-04-05T05:17:17;96297;;;3.23;46.23
2711;BME280;20721;47.402;8.550;2023-04-05T05:18:17;96302;;;3.21;46.15
2711;BME280;20721;47.402;8.550;2023-04-05T05:19:17;96303;;;3.22;45.98
2711;BME280;20721;47.402;8.550;2023-04-05T05:20:17;96301;;;3.21;45.97
2711;BME280;20721;47.402;8.550;2023-04-05T05:23:20;96307;;;3.23;45.98
2711;BME280;20721;47.402;8.550;2023-04-05T05:24:17;96301;;;3.27;45.86
2711;BME280;20721;47.402;8.550;2023-04-05T05:25:17;96305;;;3.29;46.06
2711;BME280;20721;47.402;8.550;2023-04-05T05:26:17;96304;;;3.31;45.70
2711;BME280;20721;47.402;8.550;2023-04-05T05:27:17;96304;;;3.33;45.84
2711;BME280;20721;47.402;8.550;2023-04-05T05:28:17;96306;;;3.35;45.87
2711;BME280;20721;47.402;8.550;2023-04-05T05:30:17;96305;;;3.39;45.62
2711;BME280;20721;47.402;8.550;2023-04-05T05:31:18;96305;;;3.41;45.31
2711;BME280;20721;47.402;8.550;2023-04-05T05:35:17;96307;;;3.43;45.04
2711;BME280;20721;47.402;8.550;2023-04-05T05:38:18;96302;;;3.39;45.11
2711;BME280;20721;47.402;8.550;2023-04-05T05:39:17;96303;;;3.40;45.20
2711;BME280;20721;47.402;8.550;2023-04-05T05:41:17;96305;;;3.44;45.29
2711;BME280;20721;47.402;8.550;2023-04-05T05:42:18;96304;;;3.48;45.36
2711;BME280;20721;47.402;8.550;2023-04-05T05:43:19;96304;;;3.52;45.31
2711;BME280;20721;47.402;8.550;2023-04-05T05:44:17;96306;;;3.56;45.25
2711;BME280;20721;47.402;8.550;2023-04-05T05:45:17;96301;;;3.60;44.92
2711;BME280;20721;47.402;8.550;2023-04-05T05:46:21;96306;;;3.63;45.00
2711;BME280;20721;47.402;8.550;2023-04-05T05:47:17;96306;;;3.67;44.89
2711;BME280;20721;47.402;8.550;2023-04-05T05:48:17;96308;;;3.74;44.80
2711;BME280;20721;47.402;8.550;2023-04-05T05:49:17;96308;;;3.80;44.61
2711;BME280;20721;47.402;8.550;2023-04-05T05:50:19;96307;;;3.87;44.55
2711;BME280;20721;47.402;8.550;2023-04-05T05:51:17;96312;;;3.95;44.58
2711;BME280;20721;47.402;8.550;2023-04-05T05:52:17;96308;;;4.02;44.27
2711;BME280;20721;47.402;8.550;2023-04-05T05:53:17;96309;;;4.07;44.30
2711;BME280;20721;47.402;8.550;2023-04-05T05:54:17;96306;;;4.14;44.10
2711;BME280;20721;47.402;8.550;2023-04-05T05:55:17;96310;;;4.21;44.02
2711;BME280;20721;47.402;8.550;2023-04-05T05:56:17;96309;;;4.31;43.99
2711;BME280;20721;47.402;8.550;2023-04-05T05:57:17;96311;;;4.38;43.37
2711;BME280;20721;47.402;8.550;2023-04-05T05:58:17;96313;;;4.45;43.27
2711;BME280;20721;47.402;8.550;2023-04-05T05:59:17;96314;;;4.50;43.29
2711;BME280;20721;47.402;8.550;2023-04-05T06:00:18;96308;;;4.58;43.08
2711;BME280;20721;47.402;8.550;2023-04-05T06:01:18;96307;;;4.65;43.18
2711;BME280;20721;47.402;8.550;2023-04-05T06:02:17;96313;;;4.74;43.13
2711;BME280;20721;47.402;8.550;2023-04-05T06:03:18;96313;;;4.84;43.02
2711;BME280;20721;47.402;8.550;2023-04-05T06:04:18;96316;;;4.95;42.86
2711;BME280;20721;47.402;8.550;2023-04-05T06:05:17;96318;;;5.05;42.46
2711;BME280;20721;47.402;8.550;2023-04-05T06:06:17;96322;;;5.11;42.12
2711;BME280;20721;47.402;8.550;2023-04-05T06:07:17;96321;;;5.19;42.15
2711;BME280;20721;47.402;8.550;2023-04-05T06:08:17;96321;;;5.22;41.76
2711;BME280;20721;47.402;8.550;2023-04-05T06:09:17;96322;;;5.28;41.82
2711;BME280;20721;47.402;8.550;2023-04-05T06:10:18;96324;;;5.33;41.80
2711;BME280;20721;47.402;8.550;2023-04-05T06:11:18;96328;;;5.38;41.89
2711;BME280;20721;47.402;8.550;2023-04-05T06:12:19;96325;;;5.46;41.61
2711;BME280;20721;47.402;8.550;2023-04-05T06:13:18;96326;;;5.56;41.57
2711;BME280;20721;47.402;8.550;2023-04-05T06:14:17;96324;;;5.65;41.49
2711;BME280;20721;47.402;8.550;2023-04-05T06:15:17;96328;;;5.75;41.11
2711;BME280;20721;47.402;8.550;2023-04-05T06:16:17;96330;;;5.84;40.88
2711;BME280;20721;47.402;8.550;2023-04-05T06:17:17;96325;;;5.93;40.70
2711;BME280;20721;47.402;8.550;2023-04-05T06:18:19;96324;;;6.03;40.06
2711;BME280;20721;47.402;8.550;2023-04-05T06:19:17;96324;;;6.11;39.96
2711;BME280;20721;47.402;8.550;2023-04-05T06:20:18;96329;;;6.16;39.80
2711;BME280;20721;47.402;8.550;2023-04-05T06:21:17;96327;;;6.17;39.52
2711;BME280;20721;47.402;8.550;2023-04-05T06:22:18;96326;;;6.21;39.43
2711;BME280;20721;47.402;8.550;2023-04-05T06:23:17;96328;;;6.27;38.90
2711;BME280;20721;47.402;8.550;2023-04-05T06:24:17;96327;;;6.34;39.13
2711;BME280;20721;47.402;8.550;2023-04-05T06:25:18;96329;;;6.40;39.19
2711;BME280;20721;47.402;8.550;2023-04-05T06:27:17;96330;;;6.42;39.06
2711;BME280;20721;47.402;8.550;2023-04-05T06:28:17;96327;;;6.46;38.84
2711;BME280;20721;47.402;8.550;2023-04-05T06:29:17;96325;;;6.50;38.83
2711;BME280;20721;47.402;8.550;2023-04-05T06:30:17;96326;;;6.57;38.74
2711;BME280;20721;47.402;8.550;2023-04-05T06:31:18;96324;;;6.69;38.81
2711;BME280;20721;47.402;8.550;2023-04-05T06:32:17;96325;;;6.80;38.51
2711;BME280;20721;47.402;8.550;2023-04-05T06:33:17;96323;;;6.90;38.40
2711;BME280;20721;47.402;8.550;2023-04-05T06:34:17;96323;;;6.98;38.11
2711;BME280;20721;47.402;8.550;2023-04-05T06:35:17;96326;;;7.06;38.07
2711;BME280;20721;47.402;8.550;2023-04-05T06:36:17;96324;;;7.16;37.81
2711;BME280;20721;47.402;8.550;2023-04-05T06:37:17;96326;;;7.26;37.53
2711;BME280;20721;47.402;8.550;2023-04-05T06:38:17;96323;;;7.42;37.31
2711;BME280;20721;47.402;8.550;2023-04-05T06:39:18;96321;;;7.55;37.32
2711;BME280;20721;47.402;8.550;2023-04-05T06:40:18;96318;;;7.66;36.83
2711;BME280;20721;47.402;8.550;2023-04-05T06:41:18;96321;;;7.81;36.71
2711;BME280;20721;47.402;8.550;2023-04-05T06:42:17;96315;;;7.97;36.62
2711;BME280;20721;47.402;8.550;2023-04-05T06:43:17;96320;;;8.09;35.87
2711;BME280;20721;47.402;8.550;2023-04-05T06:44:17;96318;;;8.27;35.86
2711;BME280;20721;47.402;8.550;2023-04-05T06:45:18;96317;;;8.44;35.49
2711;BME280;20721;47.402;8.550;2023-04-05T06:46:18;96316;;;8.60;34.90
2711;BME280;20721;47.402;8.550;2023-04-05T06:47:17;96316;;;8.79;34.66
2711;BME280;20721;47.402;8.550;2023-04-05T06:48:17;96319;;;9.03;34.71
2711;BME280;20721;47.402;8.550;2023-04-05T06:49:17;96318;;;9.22;33.97
2711;BME280;20721;47.402;8.550;2023-04-05T06:50:17;96320;;;9.43;33.76
2711;BME280;20721;47.402;8.550;2023-04-05T06:51:18;96320;;;9.60;32.99
2711;BME280;20721;47.402;8.550;2023-04-05T06:52:17;96313;;;9.81;33.00
2711;BME280;20721;47.402;8.550;2023-04-05T06:53:18;96314;;;9.84;32.88
2711;BME280;20721;47.402;8.550;2023-04-05T06:54:20;96318;;;10.02;32.91
2711;BME280;20721;47.402;8.550;2023-04-05T06:55:18;96318;;;10.14;32.15
2711;BME280;20721;47.402;8.550;2023-04-05T06:56:17;96311;;;10.33;32.07
2711;BME280;20721;47.402;8.550;2023-04-05T06:57:17;96312;;;10.59;31.80
2711;BME280;20721;47.402;8.550;2023-04-05T06:58:18;96310;;;10.91;31.49
2711;BME280;20721;47.402;8.550;2023-04-05T06:59:18;96314;;;11.24;30.89
2711;BME280;20721;47.402;8.550;2023-04-05T07:00:18;96317;;;11.52;30.43
2711;BME280;20721;47.402;8.550;2023-04-05T07:01:18;96319;;;11.79;30.44
2711;BME280;20721;47.402;8.550;2023-04-05T07:02:18;96314;;;12.04;29.48